Time,TemperatureF,DewpointF,PressureIn,WindDirection,WindDirectionDegrees,WindSpeedMPH,WindSpeedGustMPH,Humidity,HourlyPrecipIn,Conditions,Clouds,dailyrainin,SolarRadiationWatts/m^2,SoftwareType,DateUTC
2013-10-30 00:03:00,71.0,63.0,-100.00,SE,125,5.0,9.0,75,0.00,,,0.00,0.000000,,2013-10-30 05:03:00,
2013-10-30 00:43:00,71.0,65.0,-100.00,ESE,110,9.0,12.0,81,0.00,,,0.00,0.000000,,2013-10-30 05:43:00,
2013-10-30 00:53:00,71.0,65.0,-100.00,ESE,110,9.0,12.0,81,0.00,,,0.00,0.000000,,2013-10-30 05:53:00,
2013-10-30 01:02:00,71.0,65.0,-100.00,ESE,110,9.0,12.0,81,0.00,,,0.00,0.000000,,2013-10-30 06:02:00,
2013-10-30 01:42:00,71.0,66.0,-100.00,ESE,121,8.0,12.0,83,0.00,,,0.00,0.000000,,2013-10-30 06:42:00,
2013-10-30 01:53:00,71.0,66.0,-100.00,ESE,121,8.0,12.0,83,0.00,,,0.00,0.000000,,2013-10-30 06:53:00,
2013-10-30 02:02:00,71.0,66.0,-100.00,ESE,121,8.0,12.0,83,0.00,,,0.00,0.000000,,2013-10-30 07:02:00,
2013-10-30 02:42:00,71.0,66.0,-100.00,ESE,122,12.0,18.0,83,0.00,,,0.00,0.000000,,2013-10-30 07:42:00,
2013-10-30 02:52:00,71.0,66.0,-100.00,ESE,122,12.0,18.0,83,0.00,,,0.00,0.000000,,2013-10-30 07:52:00,
2013-10-30 03:02:00,71.0,66.0,-100.00,ESE,122,12.0,18.0,83,0.00,,,0.00,0.000000,,2013-10-30 08:02:00,
2013-10-30 03:42:00,71.0,66.0,-100.00,ESE,114,9.0,14.0,84,0.00,,,0.00,0.000000,,2013-10-30 08:42:00,
2013-10-30 03:52:00,71.0,66.0,-100.00,ESE,114,9.0,14.0,84,0.00,,,0.00,0.000000,,2013-10-30 08:52:00,
2013-10-30 04:02:00,71.0,66.0,-100.00,ESE,114,9.0,14.0,84,0.00,,,0.00,0.000000,,2013-10-30 09:02:00,
2013-10-30 04:43:00,71.0,66.0,-100.00,ESE,117,10.0,14.0,85,0.00,,,0.00,0.000000,,2013-10-30 09:43:00,
2013-10-30 04:54:00,71.0,66.0,-100.00,ESE,117,10.0,14.0,85,0.00,,,0.00,0.000000,,2013-10-30 09:54:00,
2013-10-30 05:03:00,71.0,66.0,-100.00,ESE,117,10.0,14.0,85,0.00,,,0.00,0.000000,,2013-10-30 10:03:00,
2013-10-30 05:43:00,71.0,66.0,-100.00,SE,127,11.0,16.0,85,0.00,,,0.00,0.000000,,2013-10-30 10:43:00,
2013-10-30 05:53:00,71.0,66.0,-100.00,SE,127,11.0,16.0,85,0.00,,,0.00,0.000000,,2013-10-30 10:53:00,
2013-10-30 06:02:00,71.0,66.0,-100.00,SE,127,11.0,16.0,85,0.00,,,0.00,0.000000,,2013-10-30 11:02:00,
2013-10-30 06:42:00,71.0,66.0,-100.00,SE,136,9.0,18.0,84,0.00,,,0.00,0.000000,,2013-10-30 11:42:00,
2013-10-30 06:52:00,71.0,66.0,-100.00,SE,136,9.0,18.0,84,0.00,,,0.00,0.000000,,2013-10-30 11:52:00,
2013-10-30 07:01:00,71.0,66.0,-100.00,SE,136,9.0,18.0,84,0.00,,,0.00,0.000000,,2013-10-30 12:01:00,
2013-10-30 07:42:00,69.0,65.0,-100.00,SSE,149,7.0,13.0,86,0.00,,,0.00,0.000000,,2013-10-30 12:42:00,
2013-10-30 07:52:00,69.0,65.0,-100.00,SSE,149,7.0,13.0,86,0.00,,,0.00,0.000000,,2013-10-30 12:52:00,
2013-10-30 08:02:00,69.0,65.0,-100.00,SSE,149,7.0,13.0,86,0.00,,,0.00,0.000000,,2013-10-30 13:02:00,
2013-10-30 08:42:00,69.0,65.0,-100.00,South,182,4.0,14.0,87,0.00,,,0.00,1.000000,,2013-10-30 13:42:00,
2013-10-30 08:52:00,69.0,65.0,-100.00,South,182,4.0,14.0,87,0.00,,,0.00,1.000000,,2013-10-30 13:52:00,
2013-10-30 09:02:00,69.0,65.0,-100.00,South,182,4.0,14.0,87,0.00,,,0.00,1.000000,,2013-10-30 14:02:00,
2013-10-30 09:42:00,70.0,66.0,-100.00,SE,144,4.0,7.0,86,0.00,,,0.00,27.000000,,2013-10-30 14:42:00,
2013-10-30 09:52:00,70.0,66.0,-100.00,SE,144,4.0,7.0,86,0.00,,,0.00,27.000000,,2013-10-30 14:52:00,
2013-10-30 10:02:00,70.0,66.0,-100.00,SE,144,4.0,7.0,86,0.00,,,0.00,27.000000,,2013-10-30 15:02:00,
2013-10-30 10:43:00,71.0,66.0,-100.00,SSE,168,3.0,6.0,85,0.00,,,0.00,38.000000,,2013-10-30 15:43:00,
2013-10-30 10:54:00,71.0,66.0,-100.00,SSE,168,3.0,6.0,85,0.00,,,0.00,38.000000,,2013-10-30 15:54:00,
2013-10-30 11:03:00,71.0,66.0,-100.00,SSE,168,3.0,6.0,85,0.00,,,0.00,38.000000,,2013-10-30 16:03:00,
2013-10-30 11:43:00,72.0,67.0,-100.00,SSE,149,4.0,5.0,83,0.00,,,0.00,58.000000,,2013-10-30 16:43:00,
2013-10-30 11:53:00,72.0,67.0,-100.00,SSE,149,4.0,5.0,83,0.00,,,0.00,58.000000,,2013-10-30 16:53:00,
2013-10-30 12:02:00,72.0,67.0,-100.00,SSE,149,4.0,5.0,83,0.00,,,0.00,58.000000,,2013-10-30 17:02:00,
2013-10-30 12:42:00,73.0,68.0,-100.00,SSE,150,4.0,6.0,83,0.00,,,0.00,63.000000,,2013-10-30 17:42:00,
2013-10-30 12:52:00,73.0,68.0,-100.00,SSE,150,4.0,6.0,83,0.00,,,0.00,63.000000,,2013-10-30 17:52:00,
2013-10-30 13:02:00,73.0,68.0,-100.00,SSE,150,4.0,6.0,83,0.00,,,0.00,63.000000,,2013-10-30 18:02:00,
2013-10-30 13:42:00,73.0,68.0,-100.00,SSW,200,6.0,9.0,83,0.00,,,0.00,67.000000,,2013-10-30 18:42:00,
2013-10-30 13:52:00,73.0,68.0,-100.00,SSW,200,6.0,9.0,83,0.00,,,0.00,67.000000,,2013-10-30 18:52:00,
2013-10-30 14:01:00,73.0,68.0,-100.00,SSW,200,6.0,9.0,83,0.00,,,0.00,67.000000,,2013-10-30 19:01:00,
2013-10-30 15:42:00,76.0,68.0,-100.00,SSE,166,8.0,11.0,77,-99.99,,,0.00,158.000000,,2013-10-30 20:42:00,
2013-10-30 15:52:00,76.0,68.0,-100.00,SSE,166,8.0,11.0,77,-99.99,,,0.00,158.000000,,2013-10-30 20:52:00,
2013-10-30 16:01:00,76.0,68.0,-100.00,SSE,166,8.0,11.0,77,-99.99,,,0.00,158.000000,,2013-10-30 21:01:00,
2013-10-30 16:43:00,75.0,68.0,-100.00,SSE,147,5.0,11.0,79,0.00,,,0.00,101.000000,,2013-10-30 21:43:00,
2013-10-30 16:53:00,75.0,68.0,-100.00,SSE,147,5.0,11.0,79,0.00,,,0.00,101.000000,,2013-10-30 21:53:00,
2013-10-30 17:04:00,75.0,68.0,-100.00,SSE,147,5.0,11.0,79,0.00,,,0.00,101.000000,,2013-10-30 22:04:00,
2013-10-30 17:43:00,74.0,66.0,-100.00,SE,141,5.0,9.0,77,0.00,,,0.00,106.000000,,2013-10-30 22:43:00,
2013-10-30 17:54:00,74.0,66.0,-100.00,SE,141,5.0,9.0,77,0.00,,,0.00,106.000000,,2013-10-30 22:54:00,
2013-10-30 18:03:00,74.0,66.0,-100.00,SE,141,5.0,9.0,77,0.00,,,0.00,106.000000,,2013-10-30 23:03:00,
2013-10-30 18:42:00,72.0,68.0,-100.00,SSW,204,3.0,8.0,87,0.00,,,0.00,37.000000,,2013-10-30 23:42:00,
2013-10-30 18:53:00,72.0,68.0,-100.00,SSW,204,3.0,8.0,87,0.00,,,0.00,37.000000,,2013-10-30 23:53:00,
2013-10-30 19:02:00,72.0,68.0,-100.00,SSW,204,3.0,8.0,87,0.00,,,0.00,37.000000,,2013-10-31 00:02:00,
2013-10-30 19:42:00,71.0,68.0,-100.00,SE,138,5.0,6.0,90,0.00,,,0.00,7.000000,,2013-10-31 00:42:00,
2013-10-30 19:52:00,71.0,68.0,-100.00,SE,138,5.0,6.0,90,0.00,,,0.00,7.000000,,2013-10-31 00:52:00,
2013-10-30 20:02:00,71.0,68.0,-100.00,SE,138,5.0,6.0,90,0.00,,,0.00,7.000000,,2013-10-31 01:02:00,
2013-10-30 20:42:00,71.0,68.0,-100.00,South,182,6.0,9.0,90,0.00,,,0.00,0.000000,,2013-10-31 01:42:00,
2013-10-30 20:53:00,71.0,68.0,-100.00,South,182,6.0,9.0,90,0.00,,,0.00,0.000000,,2013-10-31 01:53:00,
2013-10-30 21:02:00,71.0,68.0,-100.00,South,182,6.0,9.0,90,0.00,,,0.00,0.000000,,2013-10-31 02:02:00,
2013-10-30 21:52:00,71.0,66.0,-100.00,South,191,5.0,10.0,84,0.00,,,0.00,0.000000,,2013-10-31 02:52:00,
2013-10-30 22:02:00,71.0,66.0,-100.00,South,191,5.0,10.0,84,0.00,,,0.00,0.000000,,2013-10-31 03:02:00,
2013-10-30 22:44:00,71.0,67.0,-100.00,SSE,165,8.0,12.0,87,0.00,,,0.00,0.000000,,2013-10-31 03:44:00,
2013-10-30 22:55:00,71.0,67.0,-100.00,SSE,165,8.0,12.0,87,0.00,,,0.00,0.000000,,2013-10-31 03:55:00,
2013-10-30 23:04:00,71.0,67.0,-100.00,SSE,165,8.0,12.0,87,0.00,,,0.00,0.000000,,2013-10-31 04:04:00,
2013-10-30 23:43:00,72.0,66.0,-100.00,South,191,10.0,15.0,82,0.01,,,0.01,0.000000,,2013-10-31 04:43:00,
2013-10-30 23:54:00,72.0,66.0,-100.00,South,191,10.0,15.0,82,0.01,,,0.01,0.000000,,2013-10-31 04:54:00,